Latest Weather Observations for Thevenard

IDS60801

Issued at 4:01 am CST Monday 27 June 2016 (issued every 30 minutes, with the page automatically refreshed every 10 minutes)

About weather observations | Map of weather stations | Latest weather observations for SA | Other Formats
Station Details ID: 018200 Name: THEVENARD WIND Lat: -32.18 Lon: 133.63 Height: 8.54 m
Data from the previous 72 hours. | See also: Recent months for locations in South Australia
Date/Time
CST
Temp
°C
App
Temp
°C
Dew
Point
°C
Rel
Hum
%
Delta-T
°C
Wind Press
QNH
hPa
Press
MSL
hPa
Rain since
9am
mm
Dir  Spd
km/h
Gust
km/h
Spd
kts
Gust
kts
27/04:00am - - - - - S 13 15 7 8 - - -
27/03:30am - - - - - SSW 13 17 7 9 - - -
27/03:00am - - - - - S 11 15 6 8 - - -
27/02:30am - - - - - S 15 17 8 9 - - -
27/02:00am - - - - - S 17 19 9 10 - - -
27/01:30am - - - - - S 19 22 10 12 - - -
27/01:00am - - - - - S 24 32 13 17 - - -
27/12:30am - - - - - S 19 26 10 14 - - -
27/12:00am - - - - - S 24 30 13 16 - - -
 
Date/Time
CST
Temp
°C
App
Temp
°C
Dew
Point
°C
Rel
Hum
%
Delta-T
°C
Wind Press
QNH
hPa
Press
MSL
hPa
Rain since
9am
mm
Dir  Spd
km/h
Gust
km/h
Spd
kts
Gust
kts
26/11:30pm - - - - - S 26 32 14 17 - - -
26/11:00pm - - - - - S 24 30 13 16 - - -
26/10:30pm - - - - - S 28 33 15 18 - - -
26/10:00pm - - - - - S 26 32 14 17 - - -
26/09:30pm - - - - - S 24 30 13 16 - - -
26/09:00pm - - - - - S 32 39 17 21 - - -
26/08:30pm - - - - - S 30 35 16 19 - - -
26/08:00pm - - - - - S 35 44 19 24 - - -
26/07:30pm - - - - - W 26 35 14 19 - - -
26/07:00pm - - - - - W 30 39 16 21 - - -
26/06:30pm - - - - - W 26 32 14 17 - - -
26/06:00pm - - - - - W 22 26 12 14 - - -
26/05:30pm - - - - - W 22 24 12 13 - - -
26/05:00pm - - - - - W 20 24 11 13 - - -
26/04:30pm - - - - - WSW 22 28 12 15 - - -
26/04:00pm - - - - - WSW 30 35 16 19 - - -
26/03:30pm - - - - - WSW 20 30 11 16 - - -
26/03:00pm - - - - - W 22 28 12 15 - - -
26/02:30pm - - - - - W 19 24 10 13 - - -
26/02:00pm - - - - - W 17 20 9 11 - - -
26/01:30pm - - - - - W 20 24 11 13 - - -
26/01:00pm - - - - - WSW 24 30 13 16 - - -
26/12:30pm - - - - - W 22 26 12 14 - - -
26/12:00pm - - - - - WNW 22 28 12 15 - - -
26/11:30am - - - - - NW 20 24 11 13 - - -
26/11:00am - - - - - NNW 22 26 12 14 - - -
26/10:30am - - - - - NNW 22 26 12 14 - - -
26/10:00am - - - - - N 24 26 13 14 - - -
26/09:30am - - - - - N 26 30 14 16 - - -
26/09:00am - - - - - N 26 30 14 16 - - -
26/08:30am - - - - - NNE 17 20 9 11 - - -
26/08:00am - - - - - N 17 19 9 10 - - -
26/07:30am - - - - - NNE 17 20 9 11 - - -
26/07:00am - - - - - NNE 20 24 11 13 - - -
26/06:30am - - - - - NNE 20 22 11 12 - - -
26/06:00am - - - - - NNE 13 19 7 10 - - -
26/05:30am - - - - - NNE 15 19 8 10 - - -
26/05:00am - - - - - NNE 19 22 10 12 - - -
26/04:30am - - - - - NE 17 20 9 11 - - -
26/04:00am - - - - - NNE 15 19 8 10 - - -
26/03:30am - - - - - NE 17 22 9 12 - - -
26/03:00am - - - - - NE 17 20 9 11 - - -
26/02:30am - - - - - NE 15 20 8 11 - - -
26/02:00am - - - - - NE 17 19 9 10 - - -
26/01:30am - - - - - NNE 19 24 10 13 - - -
26/01:00am - - - - - NE 19 24 10 13 - - -
26/12:30am - - - - - NE 20 24 11 13 - - -
26/12:00am - - - - - NNE 19 22 10 12 - - -
 
Date/Time
CST
Temp
°C
App
Temp
°C
Dew
Point
°C
Rel
Hum
%
Delta-T
°C
Wind Press
QNH
hPa
Press
MSL
hPa
Rain since
9am
mm
Dir  Spd
km/h
Gust
km/h
Spd
kts
Gust
kts
25/11:30pm - - - - - NNE 19 24 10 13 - - -
25/11:00pm - - - - - NE 20 24 11 13 - - -
25/10:30pm - - - - - NE 19 24 10 13 - - -
25/10:00pm - - - - - NE 22 26 12 14 - - -
25/09:30pm - - - - - NE 19 22 10 12 - - -
25/09:00pm - - - - - NE 19 22 10 12 - - -
25/08:30pm - - - - - NE 20 24 11 13 - - -
25/08:00pm - - - - - NE 19 22 10 12 - - -
25/07:30pm - - - - - NE 20 22 11 12 - - -
25/07:00pm - - - - - NE 20 24 11 13 - - -
25/06:30pm - - - - - NE 17 20 9 11 - - -
25/06:00pm - - - - - ENE 17 20 9 11 - - -
25/05:30pm - - - - - NE 19 24 10 13 - - -
25/05:00pm - - - - - NE 22 28 12 15 - - -
25/04:30pm - - - - - NNE 19 24 10 13 - - -
25/04:00pm - - - - - NNE 19 22 10 12 - - -
25/03:30pm - - - - - NNE 17 20 9 11 - - -
25/03:00pm - - - - - NNE 15 19 8 10 - - -
25/02:30pm - - - - - NNE 15 19 8 10 - - -
25/02:00pm - - - - - NE 15 20 8 11 - - -
25/01:30pm - - - - - NE 15 19 8 10 - - -
25/01:00pm - - - - - NNE 20 24 11 13 - - -
25/12:30pm - - - - - NNE 20 26 11 14 - - -
25/12:00pm - - - - - NNE 19 24 10 13 - - -
25/11:30am - - - - - NNE 20 24 11 13 - - -
25/11:00am - - - - - NE 20 24 11 13 - - -
25/10:30am - - - - - NE 19 22 10 12 - - -
25/10:00am - - - - - NE 22 28 12 15 - - -
25/09:30am - - - - - NE 20 24 11 13 - - -
25/09:00am - - - - - NE 22 28 12 15 - - -
25/08:30am - - - - - NE 17 22 9 12 - - -
25/08:00am - - - - - ENE 17 20 9 11 - - -
25/07:30am - - - - - NNE 15 17 8 9 - - -
25/07:00am - - - - - NNE 17 20 9 11 - - -
25/06:30am - - - - - NNE 17 20 9 11 - - -
25/06:00am - - - - - NNE 19 22 10 12 - - -
25/05:30am - - - - - NNE 17 20 9 11 - - -
25/05:00am - - - - - NNE 11 15 6 8 - - -
25/04:30am - - - - - NNE 9 13 5 7 - - -
25/04:00am - - - - - NE 13 15 7 8 - - -
25/03:30am - - - - - NNE 9 13 5 7 - - -
25/03:00am - - - - - N 9 11 5 6 - - -
25/02:30am - - - - - N 9 11 5 6 - - -
25/02:00am - - - - - NNE 7 9 4 5 - - -
25/01:30am - - - - - NE 7 11 4 6 - - -
25/01:00am - - - - - NNE 4 6 2 3 - - -
25/12:30am - - - - - N 6 7 3 4 - - -
25/12:00am - - - - - NE 6 9 3 5 - - -
 
Date/Time
CST
Temp
°C
App
Temp
°C
Dew
Point
°C
Rel
Hum
%
Delta-T
°C
Wind Press
QNH
hPa
Press
MSL
hPa
Rain since
9am
mm
Dir  Spd
km/h
Gust
km/h
Spd
kts
Gust
kts
24/11:30pm - - - - - NE 7 9 4 5 - - -
24/11:00pm - - - - - NNE 9 11 5 6 - - -
24/10:30pm - - - - - NE 9 13 5 7 - - -
24/10:00pm - - - - - NE 11 13 6 7 - - -
24/09:30pm - - - - - NE 11 13 6 7 - - -
24/09:00pm - - - - - ENE 11 17 6 9 - - -
24/08:30pm - - - - - NNE 6 11 3 6 - - -
24/08:00pm - - - - - NNW 9 11 5 6 - - -
24/07:30pm - - - - - NE 9 9 5 5 - - -
24/07:00pm - - - - - E 6 7 3 4 - - -
24/06:30pm - - - - - SE 7 9 4 5 - - -
24/06:00pm - - - - - SW 6 19 3 10 - - -
24/05:30pm - - - - - WSW 4 4 2 2 - - -
24/05:00pm - - - - - SW 6 7 3 4 - - -
24/04:30pm - - - - - SSW 13 15 7 8 - - -
24/04:00pm - - - - - SSW 17 19 9 10 - - -
24/03:30pm - - - - - SW 15 17 8 9 - - -
24/03:00pm - - - - - WSW 20 24 11 13 - - -
24/02:30pm - - - - - SW 20 24 11 13 - - -
24/02:00pm - - - - - W 11 20 6 11 - - -
24/01:30pm - - - - - W 20 30 11 16 - - -
24/01:00pm - - - - - S 22 26 12 14 - - -
24/12:30pm - - - - - SSW 26 35 14 19 - - -
24/12:00pm - - - - - SW 28 32 15 17 - - -
24/11:30am - - - - - SW 22 28 12 15 - - -
24/11:00am - - - - - SW 24 30 13 16 - - -
24/10:30am - - - - - SSW 22 28 12 15 - - -
24/10:00am - - - - - SSW 30 37 16 20 - - -
24/09:30am - - - - - SSW 33 41 18 22 - - -
24/09:00am - - - - - SSW 28 37 15 20 - - -
24/08:30am - - - - - SSW 30 37 16 20 - - -
24/08:00am - - - - - SSW 32 37 17 20 - - -
24/07:30am - - - - - SSW 32 37 17 20 - - -
24/07:00am - - - - - SSW 30 37 16 20 - - -
24/06:30am - - - - - SSW 35 46 19 25 - - -
24/06:00am - - - - - SSW 33 39 18 21 - - -
24/05:30am - - - - - S 39 50 21 27 - - -
24/05:00am - - - - - SSW 39 46 21 25 - - -
24/04:35am - - - - - SSW 41 59 22 32 - - -
24/04:30am - - - - - SSW 43 59 23 32 - - -
24/04:29am - - - - - SSW 41 59 22 32 - - -

Other Formats:

Comma delimited format used in spreadsheet applications
http://www.bom.gov.au/fwo/IDS60801/IDS60801.95653.axf

JavaScript Object Notation format (JSON) in row-major order
http://www.bom.gov.au/fwo/IDS60801/IDS60801.95653.json